createdAt,value
2018-03-24T00:01:54.741Z,78.50
2018-03-24T00:04:23.126Z,61.33
2018-03-24T00:06:50.850Z,88.53
2018-03-24T00:09:18.579Z,74.33
2018-03-24T00:11:46.253Z,71.37
2018-03-24T00:14:13.976Z,67.63
2018-03-24T00:16:42.116Z,74.47
2018-03-24T00:19:09.896Z,70.47
2018-03-24T00:21:37.626Z,70.63
2018-03-24T00:24:05.757Z,69.23
2018-03-24T00:26:33.536Z,68.80
2018-03-24T00:29:01.314Z,72.23
2018-03-24T00:31:29.502Z,76.60
2018-03-24T00:33:57.237Z,66.47
2018-03-24T00:36:24.959Z,70.33
2018-03-24T00:38:53.144Z,69.70
2018-03-24T00:41:20.920Z,66.00
2018-03-24T00:43:48.593Z,73.47
2018-03-24T00:46:16.475Z,67.53
2018-03-24T00:48:44.253Z,69.57
2018-03-24T00:51:12.032Z,69.40
2018-03-24T00:53:40.220Z,71.70
2018-03-24T00:56:07.894Z,69.27
2018-03-24T00:58:35.490Z,75.63
2018-03-24T01:01:03.316Z,66.80
2018-03-24T01:03:31.020Z,72.83
2018-03-24T01:05:58.747Z,75.07
2018-03-24T01:08:26.585Z,59.67
2018-03-24T01:10:54.358Z,77.47
2018-03-24T01:13:22.132Z,76.60
2018-03-24T01:15:49.808Z,70.13
2018-03-24T01:18:17.593Z,73.50
2018-03-24T01:20:45.469Z,76.27
2018-03-24T01:23:13.247Z,74.67
2018-03-24T01:25:41.025Z,66.20
2018-03-24T01:28:08.803Z,73.50
2018-03-24T01:30:36.864Z,69.37
2018-03-24T01:33:04.669Z,67.23
2018-03-24T01:35:32.341Z,64.03
2018-03-24T01:38:00.227Z,70.03
2018-03-24T01:40:27.957Z,69.87
2018-03-24T01:42:55.779Z,70.97
2018-03-24T01:45:23.660Z,66.27
2018-03-24T01:47:51.514Z,75.77
2018-03-24T01:50:19.319Z,70.03
2018-03-24T01:52:47.149Z,65.20
2018-03-24T01:55:15.178Z,66.53
2018-03-24T01:57:42.921Z,70.17
2018-03-24T02:00:10.732Z,71.93
2018-03-24T02:02:38.620Z,65.83
2018-03-24T02:05:06.393Z,73.80
2018-03-24T02:07:34.173Z,76.60
2018-03-24T02:10:01.902Z,74.93
2018-03-24T02:12:29.938Z,65.23
2018-03-24T02:14:57.661Z,69.33
2018-03-24T02:17:25.385Z,76.13
2018-03-24T02:19:53.220Z,67.27
2018-03-24T02:22:20.947Z,69.43
2018-03-24T02:24:54.967Z,73.90
2018-03-24T02:27:22.747Z,64.20
2018-03-24T02:29:50.426Z,73.23
2018-03-24T02:32:18.608Z,71.47
2018-03-24T02:34:46.296Z,76.37
2018-03-24T02:37:13.952Z,71.03
2018-03-24T02:39:42.143Z,60.73
2018-03-24T02:42:09.924Z,64.57
2018-03-24T02:44:37.661Z,62.60
2018-03-24T02:47:05.482Z,68.37
2018-03-24T02:49:33.271Z,65.00
2018-03-24T02:52:01.453Z,62.70
2018-03-24T02:54:29.189Z,69.57
2018-03-24T02:56:57.002Z,69.30
2018-03-24T02:59:24.879Z,64.83
2018-03-24T03:01:52.560Z,64.13
2018-03-24T03:04:20.292Z,72.53
2018-03-24T03:06:48.116Z,71.13
2018-03-24T03:09:15.891Z,66.57
2018-03-24T03:11:43.499Z,70.90
2018-03-24T03:14:11.343Z,69.13
2018-03-24T03:16:39.225Z,65.53
2018-03-24T03:19:06.970Z,68.67
2018-03-24T03:24:33.790Z,73.10
2018-03-24T03:27:01.524Z,66.47
2018-03-24T03:29:29.316Z,61.97
2018-03-24T03:32:02.968Z,64.47
2018-03-24T03:34:30.742Z,64.03
2018-03-24T03:36:58.415Z,62.03
2018-03-24T03:39:26.197Z,74.23
2018-03-24T03:41:54.085Z,69.67
2018-03-24T03:44:21.747Z,61.87
2018-03-24T03:46:49.530Z,64.37
2018-03-24T03:49:17.616Z,72.63
2018-03-24T03:51:45.341Z,69.40
2018-03-24T03:54:13.169Z,64.73
2018-03-24T03:56:41.049Z,62.97
2018-03-24T03:59:08.830Z,61.20
2018-03-24T04:01:36.554Z,66.57
2018-03-24T04:04:04.488Z,66.63
2018-03-24T04:06:32.217Z,67.87
2018-03-24T04:08:59.937Z,64.70
2018-03-24T04:11:27.618Z,72.73
2018-03-24T04:13:55.391Z,76.00
2018-03-24T04:16:23.179Z,69.00
2018-03-24T04:18:50.944Z,68.53
2018-03-24T04:21:18.725Z,67.27
2018-03-24T04:23:46.506Z,67.37
2018-03-24T04:26:14.386Z,65.83
2018-03-24T04:28:42.113Z,72.07
2018-03-24T04:31:09.938Z,61.33
2018-03-24T04:33:37.674Z,71.60
2018-03-24T04:36:05.511Z,62.80
2018-03-24T04:38:33.168Z,69.93
2018-03-24T04:41:00.999Z,65.60
2018-03-24T04:43:28.738Z,70.10
2018-03-24T04:45:56.505Z,76.63
2018-03-24T04:48:24.293Z,74.00
2018-03-24T04:50:51.878Z,69.67
2018-03-24T04:53:19.737Z,64.90
2018-03-24T04:55:47.515Z,69.20
2018-03-24T04:58:15.187Z,71.57
2018-03-24T05:00:42.966Z,83.10
2018-03-24T05:03:10.695Z,74.90
2018-03-24T05:05:38.315Z,76.70
2018-03-24T05:08:06.201Z,68.57
2018-03-24T05:10:33.863Z,71.00
2018-03-24T05:13:01.651Z,79.37
2018-03-24T05:15:29.530Z,75.43
2018-03-24T05:17:57.313Z,69.67
2018-03-24T05:20:25.089Z,70.00
2018-03-24T05:22:52.867Z,77.70
2018-03-24T05:25:20.551Z,80.47
2018-03-24T05:27:48.321Z,80.17
2018-03-24T05:30:16.052Z,90.20
2018-03-24T05:32:43.874Z,79.97
2018-03-24T05:35:11.755Z,78.53
2018-03-24T05:37:39.475Z,73.27
2018-03-24T05:40:07.081Z,81.80
2018-03-24T05:42:34.882Z,86.90
2018-03-24T05:45:02.564Z,81.40
2018-03-24T05:47:30.297Z,81.37
2018-03-24T05:49:58.110Z,79.20
2018-03-24T05:52:25.893Z,84.50
2018-03-24T05:54:53.625Z,78.87
2018-03-24T05:57:21.335Z,76.93
2018-03-24T05:59:49.944Z,68.10
2018-03-24T06:02:17.616Z,77.13
2018-03-24T06:04:45.802Z,89.87
2018-03-24T06:07:13.584Z,78.93
2018-03-24T06:09:41.252Z,88.23
2018-03-24T06:12:09.022Z,77.63
2018-03-24T06:14:36.621Z,76.80
2018-03-24T06:17:04.284Z,90.03
2018-03-24T06:19:32.165Z,68.13
2018-03-24T06:21:59.942Z,96.57
2018-03-24T06:24:27.643Z,72.00
2018-03-24T06:26:55.503Z,70.90
2018-03-24T06:29:23.324Z,74.10
2018-03-24T06:32:02.793Z,80.00
2018-03-24T06:34:30.583Z,76.53
2018-03-24T06:37:08.322Z,69.10
2018-03-24T06:39:36.202Z,63.70
2018-03-24T06:42:04.083Z,71.47
2018-03-24T06:44:31.860Z,69.83
2018-03-24T06:46:59.637Z,62.90
2018-03-24T06:49:27.516Z,79.43
2018-03-24T06:51:55.247Z,73.53
2018-03-24T06:54:22.856Z,69.60
2018-03-24T06:56:50.608Z,67.97
2018-03-24T06:59:18.425Z,61.23
2018-03-24T07:01:46.265Z,66.10
2018-03-24T07:04:13.978Z,65.20
2018-03-24T07:06:41.758Z,64.90
2018-03-24T07:09:09.944Z,58.63
2018-03-24T07:11:37.725Z,62.20
2018-03-24T07:14:05.392Z,54.60
2018-03-24T07:16:33.487Z,58.43
2018-03-24T07:19:01.161Z,65.50
2018-03-24T07:21:28.833Z,58.03
2018-03-24T07:23:56.617Z,49.80
2018-03-24T07:26:24.393Z,57.80
2018-03-24T07:28:52.169Z,51.83
2018-03-24T07:31:20.419Z,46.47
2018-03-24T07:33:48.041Z,39.60
2018-03-24T07:36:15.795Z,51.97
2018-03-24T07:38:45.020Z,52.17
2018-03-24T07:41:12.796Z,46.17
2018-03-24T07:43:40.381Z,49.50
2018-03-24T07:46:08.157Z,38.80
2018-03-24T07:48:35.814Z,44.83
2018-03-24T07:51:03.603Z,39.67
2018-03-24T07:53:31.383Z,37.50
2018-03-24T07:55:59.404Z,42.90
2018-03-24T07:58:27.251Z,37.63
2018-03-24T08:00:55.021Z,44.00
2018-03-24T08:03:22.686Z,40.03
2018-03-24T08:05:50.481Z,34.87
2018-03-24T08:08:18.357Z,46.13
2018-03-24T08:10:46.109Z,39.87
2018-03-24T08:13:13.912Z,36.83
2018-03-24T08:15:41.793Z,32.97
2018-03-24T08:18:09.569Z,38.27
2018-03-24T08:20:37.322Z,42.10
2018-03-24T08:23:05.130Z,42.10
2018-03-24T08:25:33.939Z,33.20
2018-03-24T08:28:01.823Z,38.40
2018-03-24T08:30:29.631Z,38.43
2018-03-24T08:32:57.466Z,35.83
2018-03-24T08:35:25.695Z,34.50
2018-03-24T08:37:53.441Z,32.93
2018-03-24T08:40:21.066Z,35.50
2018-03-24T08:42:48.789Z,39.03
2018-03-24T08:45:16.410Z,38.83
2018-03-24T08:47:44.411Z,33.27
2018-03-24T08:50:12.117Z,38.43
2018-03-24T08:52:39.897Z,32.40
2018-03-24T08:55:07.541Z,31.93
2018-03-24T08:57:35.226Z,34.50
2018-03-24T09:00:02.924Z,35.17
2018-03-24T09:02:30.574Z,30.90
2018-03-24T09:04:58.182Z,39.93
2018-03-24T09:07:25.830Z,34.80
2018-03-24T09:09:53.485Z,31.60
2018-03-24T09:12:21.098Z,30.67
2018-03-24T09:14:49.602Z,34.90
2018-03-24T09:17:17.239Z,39.53
2018-03-24T09:19:45.044Z,33.60
2018-03-24T09:22:12.827Z,36.43
2018-03-24T09:24:40.490Z,31.27
2018-03-24T09:27:08.294Z,32.30
2018-03-24T09:29:35.984Z,26.57
2018-03-24T09:32:03.639Z,43.80
2018-03-24T09:34:31.301Z,29.83
2018-03-24T09:36:58.943Z,31.63
2018-03-24T09:39:26.630Z,30.63
2018-03-24T09:41:54.252Z,25.53
2018-03-24T09:44:21.869Z,28.13
2018-03-24T09:46:49.859Z,18.83
2018-03-24T09:49:17.463Z,23.27
2018-03-24T09:51:45.098Z,27.43
2018-03-24T09:54:12.756Z,23.67
2018-03-24T09:56:40.432Z,22.20
2018-03-24T09:59:08.452Z,21.10
2018-03-24T10:01:36.114Z,19.87
2018-03-24T10:04:03.783Z,21.10
2018-03-24T10:06:31.502Z,24.43
2018-03-24T10:08:59.129Z,28.87
2018-03-24T10:11:26.744Z,20.90
2018-03-24T10:13:54.380Z,19.60
2018-03-24T10:16:22.072Z,24.10
2018-03-24T10:18:49.729Z,17.27
2018-03-24T10:24:24.245Z,17.70
2018-03-24T10:26:51.932Z,15.83
2018-03-24T10:29:19.565Z,18.67
2018-03-24T10:31:48.145Z,19.40
2018-03-24T10:34:15.836Z,24.13
2018-03-24T10:36:43.471Z,26.00
2018-03-24T10:39:11.090Z,21.80
2018-03-24T10:41:38.754Z,25.50
2018-03-24T10:44:06.378Z,19.47
2018-03-24T10:46:34.001Z,20.03
2018-03-24T10:49:01.661Z,19.03
2018-03-24T10:51:29.682Z,19.03
2018-03-24T10:53:57.365Z,20.30
2018-03-24T10:56:25.144Z,20.30
2018-03-24T10:58:52.807Z,23.30
2018-03-24T11:01:25.889Z,25.83
2018-03-24T11:03:53.908Z,21.00
2018-03-24T11:06:21.566Z,22.27
2018-03-24T11:08:49.180Z,23.10
2018-03-24T11:11:16.874Z,24.60
2018-03-24T11:13:44.530Z,23.67
2018-03-24T11:16:12.218Z,25.63
2018-03-24T11:18:39.852Z,27.17
2018-03-24T11:21:07.465Z,20.63
2018-03-24T11:23:35.140Z,25.50
2018-03-24T11:26:02.762Z,23.97
2018-03-24T11:28:30.450Z,24.40
2018-03-24T11:30:58.231Z,27.57
2018-03-24T11:33:25.895Z,25.20
2018-03-24T11:35:53.531Z,22.50
2018-03-24T11:38:21.141Z,27.20
2018-03-24T11:40:48.934Z,27.60
2018-03-24T11:43:16.558Z,25.13
2018-03-24T11:45:44.259Z,29.87
2018-03-24T11:48:11.855Z,23.50
2018-03-24T11:50:39.478Z,28.10
2018-03-24T11:53:07.125Z,24.47
2018-03-24T11:55:34.747Z,25.37
2018-03-24T11:58:02.561Z,23.50
2018-03-24T12:00:30.338Z,23.17
2018-03-24T12:02:58.116Z,25.47
2018-03-24T12:05:25.791Z,26.17
2018-03-24T12:07:53.402Z,17.23
2018-03-24T12:10:21.224Z,22.90
2018-03-24T12:12:48.818Z,19.30
2018-03-24T12:15:16.429Z,20.83
2018-03-24T12:17:44.150Z,20.50
2018-03-24T12:20:11.782Z,18.73
2018-03-24T12:22:39.453Z,17.20
2018-03-24T12:25:07.300Z,19.63
2018-03-24T12:27:35.075Z,20.20
2018-03-24T12:30:02.808Z,23.00
2018-03-24T12:32:30.523Z,17.97
2018-03-24T12:34:58.266Z,22.97
2018-03-24T12:37:25.979Z,21.20
2018-03-24T12:39:53.794Z,23.53
2018-03-24T12:42:21.545Z,18.97
2018-03-24T12:44:49.929Z,19.37
2018-03-24T12:47:17.609Z,21.03
2018-03-24T12:49:45.383Z,19.20
2018-03-24T12:52:13.024Z,22.37
2018-03-24T12:54:40.751Z,23.17
2018-03-24T12:57:08.512Z,20.10
2018-03-24T12:59:36.167Z,24.77
2018-03-24T13:02:04.165Z,24.17
2018-03-24T13:04:31.792Z,26.33
2018-03-24T13:06:59.441Z,24.93
2018-03-24T13:09:27.099Z,23.53
2018-03-24T13:11:54.872Z,21.67
2018-03-24T13:14:22.652Z,24.73
2018-03-24T13:16:50.440Z,26.13
2018-03-24T13:19:18.106Z,24.97
2018-03-24T13:21:45.881Z,23.70
2018-03-24T13:24:13.546Z,25.53
2018-03-24T13:26:41.747Z,53.07
2018-03-24T13:29:09.360Z,28.80
2018-03-24T13:31:36.976Z,53.87
2018-03-24T13:34:04.873Z,27.73
2018-03-24T13:36:32.652Z,30.97
2018-03-24T13:39:00.325Z,36.13
2018-03-24T13:41:28.241Z,27.73
2018-03-24T13:43:55.879Z,23.77
2018-03-24T13:46:23.496Z,23.30
2018-03-24T13:48:51.177Z,22.90
2018-03-24T13:51:19.012Z,27.73
2018-03-24T13:53:46.787Z,22.33
2018-03-24T13:56:14.446Z,24.13
2018-03-24T13:58:42.063Z,102.97
2018-03-24T14:01:09.918Z,23.93
2018-03-24T14:03:37.573Z,25.13
2018-03-24T14:06:05.335Z,21.13
2018-03-24T14:08:32.984Z,24.60
2018-03-24T14:11:00.619Z,25.10
2018-03-24T14:13:28.362Z,26.97
2018-03-24T14:15:56.190Z,29.47
2018-03-24T14:18:24.192Z,23.70
2018-03-24T14:20:51.818Z,24.47
2018-03-24T14:23:19.612Z,23.83
2018-03-24T14:25:47.332Z,24.73
2018-03-24T14:28:15.066Z,26.33
2018-03-24T14:30:42.843Z,23.40
2018-03-24T14:33:10.530Z,23.70
2018-03-24T14:35:38.154Z,24.73
2018-03-24T14:38:05.778Z,21.57
2018-03-24T14:40:33.452Z,22.83
2018-03-24T14:43:01.108Z,23.90
2018-03-24T14:45:28.805Z,23.47
2018-03-24T14:47:57.083Z,21.27
2018-03-24T14:50:24.716Z,23.47
2018-03-24T14:52:52.434Z,23.33
2018-03-24T14:55:20.173Z,21.37
2018-03-24T14:57:47.788Z,38.50
2018-03-24T15:00:15.557Z,72.13
2018-03-24T15:02:43.213Z,29.63
2018-03-24T15:05:10.921Z,24.17
2018-03-24T15:07:38.591Z,21.17
2018-03-24T15:10:06.250Z,25.60
2018-03-24T15:12:34.017Z,19.80
2018-03-24T15:15:01.683Z,22.50
2018-03-24T15:17:29.306Z,23.07
2018-03-24T15:19:57.488Z,21.33
2018-03-24T15:22:25.266Z,21.33
2018-03-24T15:24:52.998Z,22.87
2018-03-24T15:27:20.668Z,24.93
2018-03-24T15:30:00.206Z,19.80
2018-03-24T15:35:32.397Z,23.83
2018-03-24T15:38:00.268Z,25.77
2018-03-24T15:40:28.040Z,18.37
2018-03-24T15:42:55.789Z,22.67
2018-03-24T15:45:23.913Z,22.93
2018-03-24T15:47:51.788Z,23.20
2018-03-24T15:50:19.514Z,21.00
2018-03-24T15:52:47.138Z,25.83
2018-03-24T15:55:14.877Z,27.10
2018-03-24T15:57:42.695Z,31.13
2018-03-24T16:00:10.468Z,34.03
2018-03-24T16:02:38.103Z,23.73
2018-03-24T16:05:05.745Z,20.60
2018-03-24T16:07:33.440Z,23.17
2018-03-24T16:10:01.047Z,46.47
2018-03-24T16:12:28.710Z,23.47
2018-03-24T16:14:56.402Z,19.57
2018-03-24T16:17:24.000Z,18.97
2018-03-24T16:19:51.626Z,21.60
2018-03-24T16:22:19.623Z,21.17
2018-03-24T16:24:47.383Z,18.17
2018-03-24T16:27:15.004Z,18.83
2018-03-24T16:29:42.684Z,22.00
2018-03-24T16:32:10.306Z,23.93
2018-03-24T16:34:37.928Z,23.00
2018-03-24T16:37:05.638Z,23.70
2018-03-24T16:39:33.266Z,23.57
2018-03-24T16:42:00.885Z,23.97
2018-03-24T16:44:28.550Z,26.17
2018-03-24T16:46:56.176Z,23.60
2018-03-24T16:49:23.867Z,23.23
2018-03-24T16:51:51.519Z,21.80
2018-03-24T16:54:19.338Z,29.97
2018-03-24T16:56:47.114Z,26.27
2018-03-24T16:59:14.737Z,23.73
2018-03-24T17:01:42.569Z,24.47
2018-03-24T17:04:10.346Z,30.20
2018-03-24T17:06:38.227Z,29.93
2018-03-24T17:09:06.106Z,25.43
2018-03-24T17:11:33.882Z,27.27
2018-03-24T17:14:01.662Z,26.13
2018-03-24T17:16:29.347Z,30.93
2018-03-24T17:18:57.466Z,29.13
2018-03-24T17:21:25.302Z,26.57
2018-03-24T17:23:53.048Z,32.00
2018-03-24T17:26:21.276Z,25.80
2018-03-24T17:28:49.046Z,29.53
2018-03-24T17:31:16.689Z,33.93
2018-03-24T17:33:44.374Z,57.40
2018-03-24T17:36:11.992Z,59.83
2018-03-24T17:38:39.620Z,29.13
2018-03-24T17:41:07.713Z,44.50
2018-03-24T17:43:35.333Z,41.73
2018-03-24T17:46:02.983Z,49.87
2018-03-24T17:48:30.654Z,60.33
2018-03-24T17:50:58.367Z,43.60
2018-03-24T17:53:26.022Z,48.43
2018-03-24T17:55:53.647Z,35.80
2018-03-24T17:58:22.080Z,40.77
2018-03-24T18:00:49.766Z,40.70
2018-03-24T18:03:17.400Z,30.17
2018-03-24T18:05:44.999Z,29.73
2018-03-24T18:08:12.690Z,33.27
2018-03-24T18:10:40.306Z,30.73
2018-03-24T18:13:07.924Z,26.37
2018-03-24T18:15:35.602Z,26.60
2018-03-24T18:18:03.209Z,27.80
2018-03-24T18:20:30.851Z,40.10
2018-03-24T18:22:58.488Z,35.60
2018-03-24T18:25:26.153Z,37.03
2018-03-24T18:27:53.774Z,32.90
2018-03-24T18:30:21.383Z,32.27
2018-03-24T18:32:49.133Z,34.33
2018-03-24T18:35:16.753Z,35.00
2018-03-24T18:37:44.372Z,38.23
2018-03-24T18:40:12.067Z,35.47
2018-03-24T18:42:39.727Z,45.27
2018-03-24T18:45:07.354Z,63.97
2018-03-24T18:47:35.024Z,70.97
2018-03-24T18:50:02.664Z,57.93
2018-03-24T18:52:30.299Z,88.63
2018-03-24T18:54:57.979Z,53.57
2018-03-24T18:57:25.588Z,49.60
2018-03-24T18:59:53.233Z,47.07
2018-03-24T19:02:20.913Z,46.23
2018-03-24T19:04:48.599Z,45.20
2018-03-24T19:07:16.234Z,49.57
2018-03-24T19:09:43.851Z,46.83
2018-03-24T19:12:11.526Z,44.57
2018-03-24T19:14:39.223Z,43.77
2018-03-24T19:17:06.844Z,44.90
2018-03-24T19:19:34.479Z,45.00
2018-03-24T19:22:02.141Z,47.40
2018-03-24T19:24:29.744Z,46.77
2018-03-24T19:26:57.418Z,46.07
2018-03-24T19:29:25.043Z,44.50
2018-03-24T19:31:52.648Z,46.90
2018-03-24T19:34:20.306Z,39.40
2018-03-24T19:36:47.930Z,42.67
2018-03-24T19:39:15.589Z,41.50
2018-03-24T19:41:43.185Z,53.77
2018-03-24T19:44:10.855Z,51.13
2018-03-24T19:46:38.973Z,50.90
2018-03-24T19:49:06.572Z,46.67
2018-03-24T19:51:34.174Z,46.30
2018-03-24T19:54:01.825Z,43.80
2018-03-24T19:56:29.488Z,43.90
2018-03-24T19:58:57.145Z,42.00
2018-03-24T20:01:24.769Z,44.43
2018-03-24T20:03:52.475Z,41.60
2018-03-24T20:06:20.094Z,48.00
2018-03-24T20:08:47.761Z,48.03
2018-03-24T20:11:15.420Z,46.13
2018-03-24T20:13:43.028Z,47.10
2018-03-24T20:16:11.076Z,44.87
2018-03-24T20:18:38.680Z,48.70
2018-03-24T20:21:06.291Z,51.63
2018-03-24T20:23:34.020Z,44.63
2018-03-24T20:26:01.739Z,41.00
2018-03-24T20:28:29.358Z,42.00
2018-03-24T20:30:56.969Z,45.57
2018-03-24T20:33:24.641Z,64.43
2018-03-24T20:35:52.258Z,48.80
2018-03-24T20:38:19.876Z,45.07
2018-03-24T20:40:47.549Z,49.50
2018-03-24T20:43:15.138Z,49.40
2018-03-24T20:45:42.786Z,43.03
2018-03-24T20:48:10.384Z,39.90
2018-03-24T20:50:38.408Z,45.37
2018-03-24T20:53:06.019Z,45.40
2018-03-24T20:55:33.660Z,49.67
2018-03-24T20:58:01.315Z,43.00
2018-03-24T21:00:28.937Z,54.93
2018-03-24T21:02:56.582Z,52.00
2018-03-24T21:05:24.171Z,57.93
2018-03-24T21:07:51.868Z,57.03
2018-03-24T21:10:19.444Z,48.00
2018-03-24T21:12:47.043Z,47.57
2018-03-24T21:15:14.694Z,47.30
2018-03-24T21:17:42.300Z,43.23
2018-03-24T21:20:10.271Z,53.97
2018-03-24T21:22:37.878Z,46.73
2018-03-24T21:25:05.505Z,47.37
2018-03-24T21:27:33.180Z,46.90
2018-03-24T21:30:00.848Z,53.43
2018-03-24T21:32:28.438Z,53.27
2018-03-24T21:34:56.086Z,49.93
2018-03-24T21:37:23.751Z,52.97
2018-03-24T21:39:51.383Z,54.60
2018-03-24T21:42:18.975Z,46.37
2018-03-24T21:44:46.629Z,55.87
2018-03-24T21:47:14.213Z,45.93
2018-03-24T21:49:41.868Z,52.63
2018-03-24T21:52:09.475Z,49.63
2018-03-24T21:54:37.076Z,56.30
2018-03-24T21:57:04.744Z,66.80
2018-03-24T21:59:32.550Z,64.13
2018-03-24T22:02:00.173Z,61.40
2018-03-24T22:04:27.803Z,56.50
2018-03-24T22:06:55.400Z,49.93
2018-03-24T22:09:23.081Z,51.90
2018-03-24T22:11:50.688Z,65.03
2018-03-24T22:14:18.298Z,63.93
2018-03-24T22:16:45.950Z,66.10
2018-03-24T22:19:13.543Z,66.57
2018-03-24T22:21:41.134Z,56.60
2018-03-24T22:24:08.808Z,59.33
2018-03-24T22:26:36.413Z,51.53
2018-03-24T22:29:04.428Z,59.50
2018-03-24T22:31:32.049Z,54.73
2018-03-24T22:33:59.668Z,55.10
2018-03-24T22:36:27.308Z,60.33
2018-03-24T22:38:54.937Z,52.30
2018-03-24T22:41:25.456Z,60.17
2018-03-24T22:43:53.072Z,56.60
2018-03-24T22:46:20.685Z,55.70
2018-03-24T22:48:48.326Z,63.17
2018-03-24T22:51:15.916Z,54.73
2018-03-24T22:53:43.529Z,60.80
2018-03-24T22:56:11.206Z,55.50
2018-03-24T22:58:38.816Z,64.13
2018-03-24T23:01:06.492Z,62.93
2018-03-24T23:03:34.932Z,61.40
2018-03-24T23:06:02.561Z,57.90
2018-03-24T23:08:30.200Z,66.77
2018-03-24T23:10:57.814Z,70.83
2018-03-24T23:13:25.456Z,71.00
2018-03-24T23:15:53.093Z,71.87
2018-03-24T23:18:20.693Z,66.07
2018-03-24T23:20:48.329Z,83.60
2018-03-24T23:23:15.987Z,57.90
2018-03-24T23:25:43.602Z,54.60
2018-03-24T23:28:12.186Z,62.50
2018-03-24T23:30:39.831Z,58.73
2018-03-24T23:33:08.328Z,57.13
2018-03-24T23:35:35.977Z,58.97
2018-03-24T23:38:04.385Z,64.77
2018-03-24T23:40:32.018Z,64.03
2018-03-24T23:42:59.954Z,63.57
2018-03-24T23:45:27.541Z,57.17
2018-03-24T23:47:55.136Z,70.20
2018-03-24T23:50:22.795Z,79.50
2018-03-24T23:52:50.382Z,58.67
2018-03-24T23:55:18.278Z,55.17
2018-03-24T23:57:46.246Z,56.43
